createdAt,value
2018-12-10T00:01:02.327Z,42.40
2018-12-10T00:03:34.880Z,42.30
2018-12-10T00:06:03.416Z,42.30
2018-12-10T00:08:31.759Z,42.30
2018-12-10T00:11:00.302Z,42.50
2018-12-10T00:13:28.740Z,42.50
2018-12-10T00:15:57.083Z,42.40
2018-12-10T00:18:25.428Z,42.50
2018-12-10T00:20:53.781Z,42.60
2018-12-10T00:23:22.136Z,42.50
2018-12-10T00:25:50.668Z,42.60
2018-12-10T00:28:18.997Z,42.60
2018-12-10T00:30:47.423Z,42.60
2018-12-10T00:33:15.769Z,42.70
2018-12-10T00:35:44.106Z,42.80
2018-12-10T00:38:12.668Z,42.80
2018-12-10T00:40:41.007Z,42.80
2018-12-10T00:43:09.339Z,42.70
2018-12-10T00:45:37.660Z,42.70
2018-12-10T00:48:06.005Z,42.60
2018-12-10T00:50:34.337Z,42.70
2018-12-10T00:53:02.987Z,42.70
2018-12-10T00:55:31.308Z,42.70
2018-12-10T00:57:59.657Z,42.70
2018-12-10T01:00:28.211Z,42.70
2018-12-10T01:02:56.531Z,42.60
2018-12-10T01:05:24.891Z,42.60
2018-12-10T01:07:53.217Z,42.60
2018-12-10T01:10:21.556Z,41.80
2018-12-10T01:12:49.907Z,41.60
2018-12-10T01:15:18.250Z,42.20
2018-12-10T01:17:46.671Z,42.40
2018-12-10T01:20:15.019Z,42.40
2018-12-10T01:22:43.382Z,42.40
2018-12-10T01:25:11.742Z,42.50
2018-12-10T01:27:40.096Z,42.50
2018-12-10T01:30:08.422Z,42.50
2018-12-10T01:32:36.771Z,42.50
2018-12-10T01:35:05.366Z,43.20
2018-12-10T01:37:33.706Z,42.50
2018-12-10T01:40:02.060Z,42.50
2018-12-10T01:42:30.400Z,42.50
2018-12-10T01:44:58.748Z,42.50
2018-12-10T01:47:27.105Z,43.00
2018-12-10T01:49:55.460Z,42.60
2018-12-10T01:52:23.809Z,42.60
2018-12-10T01:54:52.243Z,42.50
2018-12-10T01:57:20.600Z,42.50
2018-12-10T01:59:48.929Z,42.40
2018-12-10T02:02:17.256Z,42.40
2018-12-10T02:04:45.602Z,42.60
2018-12-10T02:07:13.943Z,42.70
2018-12-10T02:09:42.376Z,42.70
2018-12-10T02:12:10.713Z,42.60
2018-12-10T02:14:39.043Z,42.60
2018-12-10T02:17:07.357Z,42.60
2018-12-10T02:19:35.716Z,42.80
2018-12-10T02:22:04.186Z,42.70
2018-12-10T02:24:33.563Z,42.60
2018-12-10T02:27:01.890Z,42.70
2018-12-10T02:29:30.406Z,42.70
2018-12-10T02:31:58.739Z,42.60
2018-12-10T02:34:27.058Z,42.50
2018-12-10T02:36:55.396Z,42.60
2018-12-10T02:39:23.725Z,42.60
2018-12-10T02:41:52.063Z,42.70
2018-12-10T02:44:20.387Z,42.60
2018-12-10T02:46:48.719Z,42.60
2018-12-10T02:49:17.043Z,42.60
2018-12-10T02:51:45.527Z,42.50
2018-12-10T02:54:13.869Z,42.50
2018-12-10T02:56:42.201Z,42.60
2018-12-10T02:59:10.543Z,42.50
2018-12-10T03:01:38.897Z,42.50
2018-12-10T03:04:07.213Z,42.40
2018-12-10T03:06:35.635Z,42.40
2018-12-10T03:09:05.234Z,42.40
2018-12-10T03:11:33.575Z,42.40
2018-12-10T03:14:01.966Z,42.30
2018-12-10T03:16:30.311Z,42.30
2018-12-10T03:18:58.635Z,42.30
2018-12-10T03:21:26.971Z,42.30
2018-12-10T03:23:55.453Z,42.40
2018-12-10T03:26:24.085Z,42.40
2018-12-10T03:28:52.415Z,42.40
2018-12-10T03:31:20.728Z,42.40
2018-12-10T03:33:49.065Z,42.40
2018-12-10T03:36:17.394Z,42.40
2018-12-10T03:38:45.734Z,42.30
2018-12-10T03:41:14.060Z,42.30
2018-12-10T03:43:42.395Z,43.00
2018-12-10T03:46:10.741Z,42.40
2018-12-10T03:48:39.062Z,42.30
2018-12-10T03:51:07.399Z,42.20
2018-12-10T03:53:35.730Z,42.20
2018-12-10T03:56:04.145Z,42.30
2018-12-10T03:58:32.481Z,42.60
2018-12-10T04:01:00.806Z,42.60
2018-12-10T04:03:29.141Z,42.90
2018-12-10T04:05:57.480Z,42.90
2018-12-10T04:08:26.195Z,42.80
2018-12-10T04:10:54.555Z,43.30
2018-12-10T04:13:22.895Z,43.00
2018-12-10T04:15:51.298Z,43.00
2018-12-10T04:18:19.637Z,43.00
2018-12-10T04:20:47.992Z,43.00
2018-12-10T04:23:16.322Z,43.00
2018-12-10T04:25:44.654Z,42.90
2018-12-10T04:28:14.989Z,42.80
2018-12-10T04:30:44.847Z,42.70
2018-12-10T04:33:13.293Z,42.70
2018-12-10T04:35:41.639Z,42.50
2018-12-10T04:38:09.997Z,42.60
2018-12-10T04:40:38.357Z,42.60
2018-12-10T04:43:07.580Z,43.30
2018-12-10T04:45:35.956Z,41.70
2018-12-10T04:48:04.294Z,40.60
2018-12-10T04:50:32.923Z,40.40
2018-12-10T04:53:01.506Z,39.60
2018-12-10T04:55:29.833Z,39.40
2018-12-10T04:57:58.174Z,39.30
2018-12-10T05:00:26.523Z,39.20
2018-12-10T05:02:54.861Z,39.10
2018-12-10T05:05:23.211Z,39.00
2018-12-10T05:07:51.537Z,38.90
2018-12-10T05:10:19.883Z,38.80
2018-12-10T05:12:48.205Z,38.70
2018-12-10T05:15:16.545Z,38.50
2018-12-10T05:17:44.975Z,39.20
2018-12-10T05:20:13.318Z,38.50
2018-12-10T05:22:41.651Z,38.50
2018-12-10T05:25:09.999Z,38.50
2018-12-10T05:27:38.463Z,38.40
2018-12-10T05:30:07.356Z,38.50
2018-12-10T05:32:35.713Z,39.10
2018-12-10T05:35:05.313Z,38.50
2018-12-10T05:37:33.746Z,38.60
2018-12-10T05:40:02.111Z,38.50
2018-12-10T05:42:30.446Z,38.60
2018-12-10T05:44:58.786Z,38.60
2018-12-10T05:47:27.162Z,38.50
2018-12-10T05:49:55.487Z,38.60
2018-12-10T05:52:23.816Z,38.60
2018-12-10T05:54:52.232Z,38.70
2018-12-10T05:57:20.555Z,38.60
2018-12-10T05:59:48.930Z,38.50
2018-12-10T06:02:17.249Z,38.40
2018-12-10T06:04:45.601Z,38.50
2018-12-10T06:07:13.940Z,39.40
2018-12-10T06:09:42.298Z,41.40
2018-12-10T06:12:10.631Z,42.10
2018-12-10T06:14:39.002Z,42.60
2018-12-10T06:17:07.342Z,43.30
2018-12-10T06:19:35.694Z,42.30
2018-12-10T06:22:04.042Z,41.30
2018-12-10T06:24:32.607Z,40.20
2018-12-10T06:27:01.383Z,39.50
2018-12-10T06:29:29.712Z,39.10
2018-12-10T06:31:58.176Z,38.80
2018-12-10T06:34:26.528Z,38.60
2018-12-10T06:36:54.855Z,40.30
2018-12-10T06:39:23.198Z,41.30
2018-12-10T06:41:51.556Z,41.70
2018-12-10T06:44:19.906Z,41.90
2018-12-10T06:46:48.277Z,41.90
2018-12-10T06:49:16.629Z,42.20
2018-12-10T06:51:45.174Z,42.20
2018-12-10T06:54:13.520Z,42.10
2018-12-10T06:56:42.076Z,42.00
2018-12-10T06:59:10.412Z,42.40
2018-12-10T07:01:40.780Z,42.20
2018-12-10T07:04:09.122Z,42.00
2018-12-10T07:06:37.478Z,42.30
2018-12-10T07:09:06.176Z,42.30
2018-12-10T07:11:34.520Z,42.70
2018-12-10T07:14:02.864Z,43.00
2018-12-10T07:16:31.206Z,44.10
2018-12-10T07:19:00.117Z,45.00
2018-12-10T07:21:28.471Z,45.50
2018-12-10T07:23:56.821Z,44.80
2018-12-10T07:26:25.162Z,45.00
2018-12-10T07:28:53.524Z,45.00
2018-12-10T07:31:21.899Z,45.00
2018-12-10T07:33:50.244Z,45.10
2018-12-10T07:36:18.590Z,45.10
2018-12-10T07:38:46.953Z,44.40
2018-12-10T07:41:15.310Z,44.50
2018-12-10T07:43:43.780Z,43.20
2018-12-10T07:46:12.119Z,43.60
2018-12-10T07:48:40.474Z,44.60
2018-12-10T07:51:08.855Z,43.20
2018-12-10T07:53:37.220Z,41.80
2018-12-10T07:56:05.567Z,40.70
2018-12-10T07:58:33.944Z,40.10
2018-12-10T08:01:02.304Z,39.70
2018-12-10T08:03:30.655Z,39.60
2018-12-10T08:05:59.008Z,39.30
2018-12-10T08:08:27.500Z,39.20
2018-12-10T08:10:55.892Z,39.10
2018-12-10T08:13:24.237Z,39.10
2018-12-10T08:15:52.572Z,39.00
2018-12-10T08:18:21.071Z,39.00
2018-12-10T08:20:49.409Z,39.00
2018-12-10T08:23:17.754Z,38.80
2018-12-10T08:25:46.119Z,38.70
2018-12-10T08:28:14.465Z,38.70
2018-12-10T08:30:42.882Z,38.50
2018-12-10T08:33:11.274Z,38.40
2018-12-10T08:35:40.952Z,38.40
2018-12-10T08:38:10.026Z,38.50
2018-12-10T08:40:38.377Z,38.30
2018-12-10T08:43:06.958Z,38.30
2018-12-10T08:45:35.315Z,38.30
2018-12-10T08:48:03.766Z,38.40
2018-12-10T08:50:32.131Z,38.30
2018-12-10T08:53:00.476Z,38.30
2018-12-10T08:55:28.835Z,38.10
2018-12-10T08:57:57.200Z,38.10
2018-12-10T09:00:25.542Z,38.10
2018-12-10T09:02:53.898Z,38.20
2018-12-10T09:05:22.223Z,38.00
2018-12-10T09:07:50.566Z,38.00
2018-12-10T09:10:19.249Z,38.10
2018-12-10T09:12:47.645Z,38.20
2018-12-10T09:15:16.135Z,38.10
2018-12-10T09:17:44.477Z,38.10
2018-12-10T09:20:12.807Z,38.00
2018-12-10T09:22:41.159Z,38.00
2018-12-10T09:25:09.515Z,37.90
2018-12-10T09:27:38.029Z,38.00
2018-12-10T09:30:08.632Z,37.90
2018-12-10T09:32:37.031Z,37.90
2018-12-10T09:35:05.843Z,37.70
2018-12-10T09:37:34.173Z,37.70
2018-12-10T09:40:02.667Z,37.80
2018-12-10T09:42:30.998Z,37.80
2018-12-10T09:44:59.350Z,37.80
2018-12-10T09:47:27.693Z,37.90
2018-12-10T09:49:56.044Z,37.90
2018-12-10T09:52:24.381Z,37.80
2018-12-10T09:54:52.724Z,37.70
2018-12-10T09:57:21.039Z,37.70
2018-12-10T09:59:49.425Z,37.70
2018-12-10T10:02:17.776Z,37.70
2018-12-10T10:04:46.117Z,37.60
2018-12-10T10:07:14.530Z,37.60
2018-12-10T10:09:42.893Z,37.80
2018-12-10T10:12:11.292Z,37.80
2018-12-10T10:14:39.634Z,37.80
2018-12-10T10:17:07.973Z,37.70
2018-12-10T10:19:36.327Z,37.70
2018-12-10T10:22:04.702Z,37.70
2018-12-10T10:24:33.050Z,37.60
2018-12-10T10:27:01.404Z,37.60
2018-12-10T10:29:29.753Z,37.60
2018-12-10T10:31:58.223Z,37.70
2018-12-10T10:34:26.565Z,37.60
2018-12-10T10:36:54.896Z,37.50
2018-12-10T10:39:23.235Z,37.60
2018-12-10T10:41:51.558Z,37.60
2018-12-10T10:44:20.014Z,37.80
2018-12-10T10:46:48.382Z,37.90
2018-12-10T10:49:16.737Z,38.00
2018-12-10T10:51:45.097Z,39.30
2018-12-10T10:54:13.481Z,40.30
2018-12-10T10:56:41.832Z,40.90
2018-12-10T10:59:10.178Z,41.10
2018-12-10T11:01:44.535Z,41.50
2018-12-10T11:04:12.878Z,41.60
2018-12-10T11:06:41.336Z,41.70
2018-12-10T11:09:15.292Z,42.10
2018-12-10T11:11:40.154Z,42.30
2018-12-10T11:14:08.508Z,42.30
2018-12-10T11:16:36.855Z,42.30
2018-12-10T11:19:05.193Z,42.20
2018-12-10T11:21:33.547Z,42.30
2018-12-10T11:24:01.900Z,42.30
2018-12-10T11:26:30.248Z,42.30
2018-12-10T11:28:58.831Z,42.50
2018-12-10T11:31:27.173Z,42.50
2018-12-10T11:33:55.524Z,42.60
2018-12-10T11:36:24.144Z,42.60
2018-12-10T11:38:57.978Z,42.50
2018-12-10T11:41:23.024Z,43.20
2018-12-10T11:43:51.346Z,42.60
2018-12-10T11:46:19.673Z,42.60
2018-12-10T11:48:48.235Z,42.60
2018-12-10T11:51:17.278Z,43.00
2018-12-10T11:53:45.742Z,42.80
2018-12-10T11:56:14.099Z,40.80
2018-12-10T11:58:42.787Z,39.80
2018-12-10T12:01:11.143Z,39.30
2018-12-10T12:03:39.583Z,39.10
2018-12-10T12:06:07.942Z,38.90
2018-12-10T12:08:36.542Z,38.90
2018-12-10T12:11:04.924Z,38.70
2018-12-10T12:13:33.348Z,38.60
2018-12-10T12:16:01.761Z,38.60
2018-12-10T12:18:30.259Z,38.50
2018-12-10T12:20:58.938Z,38.50
2018-12-10T12:23:27.274Z,38.40
2018-12-10T12:25:55.645Z,38.20
2018-12-10T12:28:23.988Z,38.20
2018-12-10T12:30:52.422Z,38.10
2018-12-10T12:33:20.775Z,38.00
2018-12-10T12:35:49.115Z,37.90
2018-12-10T12:38:17.510Z,36.80
2018-12-10T12:40:45.933Z,39.60
2018-12-10T12:43:16.266Z,40.80
2018-12-10T12:45:44.664Z,41.10
2018-12-10T12:48:13.063Z,41.50
2018-12-10T12:50:41.498Z,41.70
2018-12-10T12:53:10.576Z,42.00
2018-12-10T12:55:38.927Z,42.10
2018-12-10T12:58:07.291Z,42.30
2018-12-10T13:00:41.958Z,42.30
2018-12-10T13:03:06.012Z,42.20
2018-12-10T13:05:34.349Z,42.30
2018-12-10T13:08:02.695Z,42.50
2018-12-10T13:10:31.039Z,42.50
2018-12-10T13:12:59.382Z,42.70
2018-12-10T13:15:27.722Z,42.70
2018-12-10T13:17:56.097Z,42.80
2018-12-10T13:20:24.535Z,42.70
2018-12-10T13:22:53.046Z,42.90
2018-12-10T13:25:21.608Z,43.00
2018-12-10T13:27:50.035Z,42.60
2018-12-10T13:30:18.501Z,42.20
2018-12-10T13:32:46.936Z,42.20
2018-12-10T13:35:15.270Z,42.10
2018-12-10T13:37:45.916Z,42.00
2018-12-10T13:40:13.958Z,42.10
2018-12-10T13:42:42.296Z,42.20
2018-12-10T13:45:10.651Z,42.20
2018-12-10T13:47:38.977Z,42.30
2018-12-10T13:50:07.430Z,41.40
2018-12-10T13:52:35.796Z,40.40
2018-12-10T13:55:04.698Z,39.80
2018-12-10T13:57:33.075Z,39.50
2018-12-10T14:00:01.561Z,39.20
2018-12-10T14:02:30.408Z,39.10
2018-12-10T14:04:59.717Z,39.00
2018-12-10T14:07:28.062Z,38.80
2018-12-10T14:09:56.419Z,38.60
2018-12-10T14:12:24.755Z,38.40
2018-12-10T14:14:53.111Z,38.80
2018-12-10T14:17:21.682Z,38.00
2018-12-10T14:19:50.141Z,38.00
2018-12-10T14:22:18.707Z,37.90
2018-12-10T14:24:47.059Z,38.00
2018-12-10T14:27:15.654Z,37.80
2018-12-10T14:29:43.999Z,37.90
2018-12-10T14:32:12.627Z,37.90
2018-12-10T14:34:40.976Z,37.80
2018-12-10T14:37:09.310Z,38.00
2018-12-10T14:39:37.679Z,37.80
2018-12-10T14:42:10.007Z,38.30
2018-12-10T14:44:38.376Z,37.70
2018-12-10T14:47:07.871Z,37.70
2018-12-10T14:49:36.288Z,37.70
2018-12-10T14:52:04.639Z,37.50
2018-12-10T14:54:32.999Z,37.50
2018-12-10T14:57:01.321Z,37.50
2018-12-10T14:59:29.672Z,37.50
2018-12-10T15:01:58.020Z,37.30
2018-12-10T15:04:26.474Z,37.40
2018-12-10T15:06:54.833Z,37.40
2018-12-10T15:09:23.431Z,37.30
2018-12-10T15:11:52.006Z,37.40
2018-12-10T15:14:20.337Z,37.30
2018-12-10T15:16:48.691Z,37.30
2018-12-10T15:19:17.051Z,37.30
2018-12-10T15:21:45.391Z,37.20
2018-12-10T15:24:13.719Z,37.20
2018-12-10T15:26:42.090Z,37.20
2018-12-10T15:29:10.899Z,37.20
2018-12-10T15:31:40.010Z,36.70
2018-12-10T15:34:08.375Z,38.20
2018-12-10T15:36:36.753Z,39.10
2018-12-10T15:39:06.057Z,39.20
2018-12-10T15:41:34.394Z,39.60
2018-12-10T15:44:02.734Z,39.70
2018-12-10T15:46:31.081Z,39.80
2018-12-10T15:48:59.472Z,39.80
2018-12-10T15:51:27.809Z,40.40
2018-12-10T15:53:56.176Z,40.20
2018-12-10T15:56:24.561Z,40.10
2018-12-10T15:58:52.982Z,40.30
2018-12-10T16:01:21.346Z,40.20
2018-12-10T16:03:49.718Z,40.20
2018-12-10T16:06:18.228Z,40.40
2018-12-10T16:08:46.596Z,40.40
2018-12-10T16:11:14.943Z,40.50
2018-12-10T16:13:43.326Z,40.50
2018-12-10T16:16:11.892Z,40.80
2018-12-10T16:18:40.241Z,41.10
2018-12-10T16:21:08.703Z,41.10
2018-12-10T16:23:37.055Z,41.30
2018-12-10T16:26:05.416Z,41.20
2018-12-10T16:28:33.760Z,41.30
2018-12-10T16:31:02.268Z,41.90
2018-12-10T16:33:30.618Z,41.50
2018-12-10T16:36:00.557Z,41.60
2018-12-10T16:38:28.970Z,41.60
2018-12-10T16:40:57.519Z,41.70
2018-12-10T16:43:26.717Z,41.60
2018-12-10T16:45:55.079Z,41.70
2018-12-10T16:48:23.434Z,41.80
2018-12-10T16:50:52.462Z,41.70
2018-12-10T16:53:21.153Z,41.70
2018-12-10T16:55:49.485Z,41.70
2018-12-10T16:58:18.015Z,41.90
2018-12-10T17:00:46.357Z,42.20
2018-12-10T17:03:14.708Z,42.10
2018-12-10T17:05:43.263Z,42.20
2018-12-10T17:08:11.610Z,42.50
2018-12-10T17:10:39.964Z,42.50
2018-12-10T17:13:08.323Z,42.40
2018-12-10T17:15:36.873Z,42.30
2018-12-10T17:18:05.403Z,42.30
2018-12-10T17:20:33.928Z,42.20
2018-12-10T17:23:02.314Z,42.30
2018-12-10T17:25:30.800Z,42.10
2018-12-10T17:27:59.156Z,42.40
2018-12-10T17:30:27.527Z,42.60
2018-12-10T17:32:55.954Z,42.70
2018-12-10T17:35:24.301Z,42.70
2018-12-10T17:37:52.671Z,42.70
2018-12-10T17:40:21.750Z,42.60
2018-12-10T17:42:50.819Z,42.50
2018-12-10T17:45:19.911Z,42.30
2018-12-10T17:47:48.260Z,42.20
2018-12-10T17:50:16.612Z,42.10
2018-12-10T17:52:44.971Z,42.10
2018-12-10T17:55:13.593Z,42.20
2018-12-10T17:57:42.028Z,42.30
2018-12-10T18:00:10.560Z,42.60
2018-12-10T18:02:39.130Z,42.70
2018-12-10T18:05:07.577Z,43.00
2018-12-10T18:07:35.941Z,42.90
2018-12-10T18:10:05.491Z,42.80
2018-12-10T18:12:33.882Z,42.80
2018-12-10T18:15:02.246Z,42.80
2018-12-10T18:17:30.604Z,43.70
2018-12-10T18:19:59.110Z,42.30
2018-12-10T18:22:27.483Z,40.80
2018-12-10T18:24:55.882Z,39.80
2018-12-10T18:27:24.340Z,39.30
2018-12-10T18:29:52.807Z,38.90
2018-12-10T18:32:21.195Z,38.70
2018-12-10T18:34:49.685Z,38.70
2018-12-10T18:37:18.051Z,38.50
2018-12-10T18:39:46.583Z,38.40
2018-12-10T18:42:15.848Z,38.50
2018-12-10T18:44:44.423Z,38.40
2018-12-10T18:47:12.791Z,38.30
2018-12-10T18:49:41.313Z,38.20
2018-12-10T18:52:09.685Z,38.10
2018-12-10T18:54:38.038Z,38.10
2018-12-10T18:57:06.464Z,37.90
2018-12-10T18:59:35.308Z,38.00
2018-12-10T19:02:03.752Z,37.90
2018-12-10T19:04:32.104Z,37.80
2018-12-10T19:07:00.438Z,37.90
2018-12-10T19:09:29.141Z,37.90
2018-12-10T19:11:59.155Z,37.90
2018-12-10T19:14:28.017Z,37.80
2018-12-10T19:16:56.427Z,37.80
2018-12-10T19:19:24.788Z,37.80
2018-12-10T19:21:54.348Z,37.70
2018-12-10T19:24:22.786Z,37.70
2018-12-10T19:26:51.125Z,37.60
2018-12-10T19:29:19.451Z,37.60
2018-12-10T19:31:48.119Z,37.50
2018-12-10T19:34:16.500Z,37.60
2018-12-10T19:36:44.827Z,37.50
2018-12-10T19:39:13.259Z,37.50
2018-12-10T19:41:41.621Z,37.50
2018-12-10T19:44:09.976Z,37.50
2018-12-10T19:46:38.566Z,37.50
2018-12-10T19:49:06.931Z,37.40
2018-12-10T19:51:35.289Z,37.30
2018-12-10T19:54:03.851Z,37.20
2018-12-10T19:56:32.353Z,37.30
2018-12-10T19:59:01.736Z,37.20
2018-12-10T20:01:30.081Z,37.20
2018-12-10T20:03:58.529Z,37.20
2018-12-10T20:06:33.305Z,37.20
2018-12-10T20:09:01.776Z,37.10
2018-12-10T20:11:30.155Z,37.30
2018-12-10T20:13:58.556Z,37.10
2018-12-10T20:16:26.943Z,37.20
2018-12-10T20:18:55.298Z,37.20
2018-12-10T20:21:23.634Z,37.20
2018-12-10T20:23:52.109Z,37.00
2018-12-10T20:26:20.481Z,37.00
2018-12-10T20:28:48.912Z,37.00
2018-12-10T20:31:17.271Z,36.90
2018-12-10T20:33:45.632Z,36.90
2018-12-10T20:36:14.202Z,37.00
2018-12-10T20:38:42.556Z,36.90
2018-12-10T20:41:11.719Z,36.60
2018-12-10T20:43:40.071Z,37.00
2018-12-10T20:46:08.566Z,38.10
2018-12-10T20:48:36.914Z,37.50
2018-12-10T20:51:05.285Z,37.20
2018-12-10T20:53:33.640Z,36.90
2018-12-10T20:56:01.977Z,36.90
2018-12-10T20:58:30.315Z,36.80
2018-12-10T21:00:58.662Z,36.70
2018-12-10T21:03:27.000Z,36.80
2018-12-10T21:06:01.182Z,36.80
2018-12-10T21:08:29.822Z,36.70
2018-12-10T21:10:59.542Z,36.80
2018-12-10T21:13:27.910Z,36.80
2018-12-10T21:15:56.249Z,36.80
2018-12-10T21:18:24.606Z,36.70
2018-12-10T21:20:52.944Z,36.90
2018-12-10T21:23:21.375Z,36.80
2018-12-10T21:25:49.823Z,36.70
2018-12-10T21:28:18.184Z,36.70
2018-12-10T21:30:46.510Z,36.70
2018-12-10T21:33:15.020Z,36.70
2018-12-10T21:35:43.385Z,36.60
2018-12-10T21:38:11.734Z,36.60
2018-12-10T21:40:41.028Z,36.70
2018-12-10T21:43:09.368Z,36.70
2018-12-10T21:45:37.699Z,36.80
2018-12-10T21:48:06.040Z,36.80
2018-12-10T21:50:34.456Z,36.70
2018-12-10T21:53:02.789Z,36.70
2018-12-10T21:55:31.250Z,36.60
2018-12-10T21:57:59.584Z,36.60
2018-12-10T22:00:28.076Z,36.40
2018-12-10T22:02:56.518Z,36.60
2018-12-10T22:05:24.858Z,36.60
2018-12-10T22:07:53.627Z,36.60
2018-12-10T22:10:22.258Z,36.70
2018-12-10T22:12:50.596Z,36.70
2018-12-10T22:15:18.933Z,36.70
2018-12-10T22:17:47.476Z,36.60
2018-12-10T22:20:15.801Z,36.60
2018-12-10T22:22:44.139Z,36.60
2018-12-10T22:25:12.464Z,36.60
2018-12-10T22:27:40.794Z,37.20
2018-12-10T22:30:09.211Z,36.60
2018-12-10T22:32:37.543Z,36.60
2018-12-10T22:35:05.955Z,36.60
2018-12-10T22:37:34.292Z,36.40
2018-12-10T22:40:02.618Z,36.60
2018-12-10T22:42:30.962Z,36.70
2018-12-10T22:44:59.285Z,36.60
2018-12-10T22:47:27.629Z,36.60
2018-12-10T22:49:55.955Z,36.60
2018-12-10T22:52:24.329Z,36.50
2018-12-10T22:54:52.679Z,36.50
2018-12-10T22:57:21.019Z,36.50
2018-12-10T22:59:49.363Z,36.40
2018-12-10T23:02:17.715Z,36.30
2018-12-10T23:04:46.058Z,36.40
2018-12-10T23:07:14.399Z,36.50
2018-12-10T23:09:42.747Z,36.50
2018-12-10T23:12:11.077Z,36.40
2018-12-10T23:14:39.405Z,36.40
2018-12-10T23:20:07.632Z,36.40
2018-12-10T23:22:35.961Z,36.50
2018-12-10T23:25:04.511Z,36.30
2018-12-10T23:27:32.847Z,36.40
2018-12-10T23:30:01.194Z,36.30
2018-12-10T23:32:29.543Z,36.40
2018-12-10T23:35:14.786Z,37.00
2018-12-10T23:37:43.105Z,36.40
2018-12-10T23:40:11.438Z,36.40
2018-12-10T23:42:41.808Z,37.10
2018-12-10T23:51:08.995Z,36.40
2018-12-10T23:53:37.409Z,36.30
2018-12-10T23:56:05.832Z,36.30
2018-12-10T23:58:34.165Z,36.20
